Time;durP1;ratioP1;P1;durP2;ratioP2;P2;SDS_P1;SDS_P2;PMS_P1;PMS_P2;Temp;Humidity;BMP_temperature;BMP_pressure;BME280_temperature;BME280_humidity;BME280_pressure;Samples;Min_cycle;Max_cycle;Signal;HPM_P1;HPM_P2
2024/04/14 00:00:16;;;;;;;0.10;0.10;;;;;;;13.29;58.52;101876.78;5526832;25;19993;-50
2024/04/14 00:02:41;;;;;;;0.10;0.10;;;;;;;13.28;59.15;101875.88;5525789;25;20004;-50
2024/04/14 00:05:07;;;;;;;0.10;0.10;;;;;;;13.26;59.94;101881.84;5526470;25;19989;-50
2024/04/14 00:07:32;;;;;;;0.10;0.10;;;;;;;13.18;60.94;101873.81;5526533;25;19989;-49
2024/04/14 00:09:57;;;;;;;0.10;0.10;;;;;;;13.13;62.50;101877.94;5526093;26;19993;-49
2024/04/14 00:12:22;;;;;;;0.17;0.17;;;;;;;13.12;63.04;101884.84;5526598;25;20001;-49
2024/04/14 00:14:48;;;;;;;0.17;0.17;;;;;;;13.10;63.98;101886.47;5526446;25;19993;-49
2024/04/14 00:17:13;;;;;;;0.20;0.20;;;;;;;13.01;64.56;101881.88;5525980;25;20151;-48
2024/04/14 00:19:38;;;;;;;0.10;0.10;;;;;;;12.96;65.58;101882.50;5526661;25;19993;-49
2024/04/14 00:22:03;;;;;;;0.20;0.20;;;;;;;12.98;67.10;101886.03;5526596;25;20001;-49
2024/04/14 00:24:29;;;;;;;0.10;0.10;;;;;;;12.92;68.08;101880.63;5525914;25;19994;-49
2024/04/14 00:26:54;;;;;;;0.13;0.13;;;;;;;12.91;69.50;101884.03;5526256;25;20340;-48
2024/04/14 00:29:19;;;;;;;0.20;0.20;;;;;;;12.88;70.79;101879.63;5525757;25;20056;-46
2024/04/14 00:31:45;;;;;;;0.20;0.20;;;;;;;12.87;72.26;101882.19;5525507;25;19997;-49
2024/04/14 00:34:10;;;;;;;0.20;0.20;;;;;;;12.84;72.05;101881.22;5525225;25;20783;-50
2024/04/14 00:36:36;;;;;;;0.10;0.10;;;;;;;12.79;72.43;101880.19;5525408;25;20004;-49
2024/04/14 00:39:01;;;;;;;0.10;0.10;;;;;;;12.78;73.38;101886.19;5526502;25;20000;-48
2024/04/14 00:41:26;;;;;;;0.10;0.10;;;;;;;12.72;73.88;101885.06;5526341;25;20004;-48
2024/04/14 00:43:52;;;;;;;0.20;0.20;;;;;;;12.69;75.56;101875.47;5525379;25;20068;-48
2024/04/14 00:46:17;;;;;;;0.20;0.20;;;;;;;12.65;77.67;101882.28;5525909;25;20001;-48
2024/04/14 00:48:43;;;;;;;0.10;0.10;;;;;;;12.62;79.85;101881.28;5525799;25;19993;-48
2024/04/14 00:51:08;;;;;;;0.20;0.20;;;;;;;12.60;81.65;101888.06;5525363;25;20001;-46
2024/04/14 00:53:34;;;;;;;0.20;0.20;;;;;;;12.59;83.82;101886.31;5526136;25;19989;-48
2024/04/14 00:56:01;;;;;;;0.20;0.20;;;;;;;12.55;84.93;101884.44;5526458;25;20001;-49
2024/04/14 00:58:27;;;;;;;0.20;0.20;;;;;;;12.55;86.20;101889.59;5525195;25;19993;-49
2024/04/14 01:00:52;;;;;;;0.10;0.10;;;;;;;12.53;87.20;101892.13;5526300;25;20398;-49
2024/04/14 01:03:17;;;;;;;0.20;0.20;;;;;;;12.47;88.84;101899.66;5526007;25;19993;-48
2024/04/14 01:05:43;;;;;;;0.20;0.20;;;;;;;12.42;90.86;101902.06;5525205;25;19994;-48
2024/04/14 01:08:10;;;;;;;0.20;0.20;;;;;;;12.40;91.71;101906.28;5525950;25;20097;-49
2024/04/14 01:10:36;;;;;;;;;;;;;;;12.51;89.63;101912.78;5526278;25;19997;-49
2024/04/14 01:13:01;;;;;;;0.20;0.20;;;;;;;12.34;93.72;101906.03;5525341;25;19935;-49
2024/04/14 01:15:26;;;;;;;0.20;0.20;;;;;;;12.33;95.59;101897.41;5525556;25;19989;-50
2024/04/14 01:17:52;;;;;;;0.10;0.10;;;;;;;12.28;96.30;101906.69;5525834;25;19989;-49
2024/04/14 01:20:18;;;;;;;0.10;0.10;;;;;;;12.28;97.60;101917.03;5525313;25;20005;-49
2024/04/14 01:22:43;;;;;;;0.20;0.20;;;;;;;12.27;98.72;101919.56;5525449;25;20332;-50
2024/04/14 01:25:09;;;;;;;0.20;0.20;;;;;;;12.24;99.57;101922.91;5525289;25;20448;-50
2024/04/14 01:27:36;;;;;;;0.17;0.17;;;;;;;12.21;100.00;101908.97;5524909;25;20004;-50
2024/04/14 01:30:07;;;;;;;0.20;0.20;;;;;;;12.18;100.00;101905.44;5525751;25;19993;-49
2024/04/14 01:32:34;;;;;;;0.20;0.20;;;;;;;12.16;100.00;101911.38;5525144;25;20550;-49
2024/04/14 01:35:00;;;;;;;0.20;0.20;;;;;;;12.12;100.00;101915.56;5524893;25;20073;-48
2024/04/14 01:37:26;;;;;;;0.20;0.20;;;;;;;12.10;100.00;101914.59;5525344;25;20008;-47
2024/04/14 01:39:51;;;;;;;0.20;0.20;;;;;;;12.07;100.00;101919.66;5524676;25;19998;-45
2024/04/14 01:42:16;;;;;;;0.13;0.13;;;;;;;12.04;100.00;101921.22;5525637;26;20496;-49
2024/04/14 01:44:41;;;;;;;0.20;0.20;;;;;;;12.03;100.00;101925.50;5524892;25;19997;-48
2024/04/14 01:47:07;;;;;;;0.20;0.20;;;;;;;12.02;100.00;101934.09;5526521;25;20700;-50
2024/04/14 01:49:32;;;;;;;0.10;0.10;;;;;;;11.97;100.00;101933.03;5528581;25;20001;-49
2024/04/14 01:51:57;;;;;;;0.20;0.20;;;;;;;12.01;100.00;101937.47;5528752;25;19997;-49
2024/04/14 01:54:22;;;;;;;0.20;0.20;;;;;;;11.98;100.00;101937.34;5527744;25;20131;-48
2024/04/14 01:56:48;;;;;;;0.13;0.13;;;;;;;11.94;100.00;101931.16;5529320;25;19998;-48
2024/04/14 01:59:13;;;;;;;0.20;0.20;;;;;;;11.88;100.00;101933.47;5528824;25;20339;-50
2024/04/14 02:01:38;;;;;;;0.20;0.20;;;;;;;11.89;100.00;101936.94;5527581;25;20449;-49
2024/04/14 02:04:04;;;;;;;0.20;0.20;;;;;;;11.78;100.00;101939.06;5528474;25;19997;-50
2024/04/14 02:06:30;;;;;;;0.20;0.20;;;;;;;11.73;100.00;101945.75;5528320;25;19997;-49
2024/04/14 02:08:55;;;;;;;0.10;0.10;;;;;;;11.75;100.00;101934.66;5527706;25;19993;-49
2024/04/14 02:11:21;;;;;;;0.20;0.20;;;;;;;11.76;100.00;101940.69;5528453;25;20001;-47
2024/04/14 02:13:46;;;;;;;0.10;0.10;;;;;;;11.72;100.00;101939.69;5528586;25;20009;-48
2024/04/14 02:16:11;;;;;;;0.20;0.20;;;;;;;11.70;100.00;101938.75;5527793;25;19998;-50
2024/04/14 02:18:37;;;;;;;0.17;0.17;;;;;;;11.68;100.00;101935.22;5528387;25;19993;-50
2024/04/14 02:21:02;;;;;;;0.20;0.20;;;;;;;11.64;100.00;101941.06;5528228;25;20005;-45
2024/04/14 02:23:29;;;;;;;0.20;0.20;;;;;;;11.64;100.00;101951.41;5527293;25;19997;-49
2024/04/14 02:25:56;;;;;;;0.20;0.20;;;;;;;11.64;100.00;101953.97;5528790;25;20005;-48
2024/04/14 02:28:21;;;;;;;0.20;0.20;;;;;;;11.62;100.00;101953.91;5527695;25;20354;-50
2024/04/14 02:30:47;;;;;;;0.20;0.20;;;;;;;11.64;100.00;101956.56;5527745;25;20065;-48
2024/04/14 02:33:12;;;;;;;0.20;0.20;;;;;;;11.59;100.00;101952.91;5528109;25;19997;-48
2024/04/14 02:35:40;;;;;;;0.20;0.20;;;;;;;11.63;100.00;101954.78;5527683;25;20343;-49
2024/04/14 02:38:05;;;;;;;;;;;;;;;11.77;100.00;101956.25;5528300;25;19998;-49
2024/04/14 02:40:30;;;;;;;0.20;0.20;;;;;;;11.62;100.00;101958.19;5527845;26;19930;-49
2024/04/14 02:42:55;;;;;;;0.20;0.20;;;;;;;11.59;100.00;101958.94;5528134;25;20005;-47
2024/04/14 02:45:21;;;;;;;0.20;0.20;;;;;;;11.56;100.00;101955.34;5527011;25;20459;-50
2024/04/14 02:47:46;;;;;;;0.20;0.20;;;;;;;11.53;100.00;101958.69;5528464;25;20001;-48
2024/04/14 02:50:11;;;;;;;0.20;0.20;;;;;;;11.52;100.00;101951.75;5527447;25;19989;-47
2024/04/14 02:52:36;;;;;;;0.20;0.20;;;;;;;11.50;100.00;101958.53;5527788;25;20001;-49
2024/04/14 02:55:02;;;;;;;0.20;0.20;;;;;;;11.44;100.00;101959.16;5528323;25;19994;-50
2024/04/14 02:57:27;;;;;;;0.20;0.20;;;;;;;11.41;100.00;101959.00;5526539;25;20003;-49
2024/04/14 02:59:52;;;;;;;0.20;0.20;;;;;;;11.37;100.00;101954.53;5527881;25;20069;-49
2024/04/14 03:02:17;;;;;;;0.20;0.20;;;;;;;11.25;100.00;101961.75;5527709;25;19997;-49
2024/04/14 03:04:47;;;;;;;0.20;0.20;;;;;;;11.27;100.00;101954.94;5526634;25;19993;-48
2024/04/14 03:07:12;;;;;;;0.20;0.20;;;;;;;11.24;100.00;101952.22;5527793;25;19994;-49
2024/04/14 03:09:37;;;;;;;0.20;0.20;;;;;;;11.25;100.00;101962.63;5527354;25;20328;-49
2024/04/14 03:12:03;;;;;;;0.20;0.20;;;;;;;11.23;100.00;101963.38;5526822;25;20005;-49
2024/04/14 03:14:28;;;;;;;0.20;0.20;;;;;;;11.14;100.00;101969.91;5527430;25;20429;-49
2024/04/14 03:16:54;;;;;;;0.20;0.20;;;;;;;11.11;100.00;101972.31;5527816;25;20445;-50
2024/04/14 03:19:19;;;;;;;0.10;0.10;;;;;;;11.09;100.00;101980.78;5527006;25;20001;-47
2024/04/14 03:21:47;;;;;;;0.20;0.20;;;;;;;11.01;100.00;101978.78;5527238;25;19993;-49
2024/04/14 03:24:12;;;;;;;0.20;0.20;;;;;;;10.93;100.00;101974.06;5527359;26;20131;-48
2024/04/14 03:26:38;;;;;;;0.20;0.20;;;;;;;10.93;100.00;101979.22;5526471;25;20028;-49
2024/04/14 03:29:04;;;;;;;0.17;0.17;;;;;;;10.91;100.00;101984.31;5532043;25;20012;-45
2024/04/14 03:31:29;;;;;;;0.20;0.20;;;;;;;10.82;100.00;101986.44;5526736;25;20441;-47
2024/04/14 03:33:54;;;;;;;0.20;0.20;;;;;;;10.82;100.00;101995.06;5526771;26;20004;-48
2024/04/14 03:36:20;;;;;;;0.20;0.20;;;;;;;10.70;100.00;101994.47;5538820;25;19996;-47
2024/04/14 03:38:45;;;;;;;0.20;0.20;;;;;;;10.63;100.00;101985.59;5564808;25;20023;-49
2024/04/14 03:41:10;;;;;;;0.17;0.17;;;;;;;10.63;100.00;101989.88;5564326;25;20064;-50
2024/04/14 03:43:35;;;;;;;0.25;0.25;;;;;;;10.63;100.00;101995.03;5564136;25;20329;-48
2024/04/14 03:46:01;;;;;;;0.20;0.20;;;;;;;10.54;100.00;102006.63;5564078;25;20019;-50
2024/04/14 03:48:26;;;;;;;0.20;0.20;;;;;;;10.51;100.00;102011.66;5563552;25;20312;-49
2024/04/14 03:50:51;;;;;;;0.20;0.20;;;;;;;10.56;100.00;102003.25;5564619;25;20316;-46
2024/04/14 03:53:17;;;;;;;0.20;0.20;;;;;;;10.48;100.00;102003.78;5563990;25;19989;-49
2024/04/14 03:55:42;;;;;;;0.30;0.30;;;;;;;10.38;100.00;102005.03;5563717;25;20020;-50
2024/04/14 03:58:07;;;;;;;0.20;0.20;;;;;;;10.34;100.00;102005.66;5564210;25;19996;-49
2024/04/14 04:00:32;;;;;;;0.20;0.20;;;;;;;10.35;100.00;102009.09;5563281;25;19999;-46
2024/04/14 04:02:58;;;;;;;0.20;0.20;;;;;;;10.30;100.00;102005.41;5563859;25;19996;-50
2024/04/14 04:05:24;;;;;;;0.20;0.20;;;;;;;10.25;100.00;102004.31;5564400;25;20424;-49
2024/04/14 04:07:50;;;;;;;0.20;0.20;;;;;;;10.27;100.00;102005.28;5563992;25;20028;-50
2024/04/14 04:10:15;;;;;;;0.30;0.30;;;;;;;10.20;100.00;102012.69;5563353;25;20412;-48
2024/04/14 04:12:42;;;;;;;0.20;0.20;;;;;;;10.17;100.00;102016.81;5563831;25;20064;-50
2024/04/14 04:15:07;;;;;;;0.20;0.20;;;;;;;10.13;100.00;102015.75;5563087;25;19989;-49
2024/04/14 04:17:32;;;;;;;0.20;0.20;;;;;;;10.11;100.00;102017.41;5564041;25;19999;-50
2024/04/14 04:19:58;;;;;;;0.20;0.20;;;;;;;10.17;100.00;102011.66;5563958;25;19996;-49
2024/04/14 04:22:23;;;;;;;0.10;0.10;;;;;;;10.18;100.00;102021.16;5562262;25;19992;-49
2024/04/14 04:24:48;;;;;;;0.30;0.30;;;;;;;10.15;100.00;102019.31;5564163;25;20440;-49
2024/04/14 04:27:13;;;;;;;0.20;0.20;;;;;;;10.23;100.00;102016.25;5563701;25;19989;-48
2024/04/14 04:29:39;;;;;;;0.10;0.10;;;;;;;10.19;100.00;102017.78;5530649;25;19997;-49
2024/04/14 04:32:04;;;;;;;0.20;0.20;;;;;;;10.26;100.00;102017.25;5526100;25;19993;-49
2024/04/14 04:34:29;;;;;;;0.20;0.20;;;;;;;10.29;100.00;102029.41;5526285;25;20004;-49
2024/04/14 04:36:55;;;;;;;0.20;0.20;;;;;;;10.31;100.00;102027.81;5525299;25;19989;-48
2024/04/14 04:39:20;;;;;;;0.30;0.30;;;;;;;10.36;100.00;102026.38;5525877;25;20020;-48
2024/04/14 04:41:45;;;;;;;0.20;0.20;;;;;;;10.36;100.00;102032.41;5526597;25;20434;-49
2024/04/14 04:44:11;;;;;;;0.20;0.20;;;;;;;10.42;100.00;102039.56;5525687;25;19994;-49
2024/04/14 04:46:37;;;;;;;0.20;0.20;;;;;;;10.43;100.00;102046.50;5525746;25;20001;-49
2024/04/14 04:49:03;;;;;;;0.20;0.20;;;;;;;10.43;100.00;102043.91;5525486;25;20509;-49
2024/04/14 04:51:28;;;;;;;0.20;0.20;;;;;;;10.51;100.00;102037.44;5525046;25;20001;-48
2024/04/14 04:53:54;;;;;;;0.20;0.20;;;;;;;10.50;100.00;102040.81;5526022;25;19993;-50
2024/04/14 04:56:19;;;;;;;0.20;0.20;;;;;;;10.52;100.00;102053.78;5526062;25;20443;-45
2024/04/14 04:58:45;;;;;;;0.17;0.17;;;;;;;10.51;100.00;102047.75;5525360;25;19993;-49
2024/04/14 05:01:10;;;;;;;0.10;0.10;;;;;;;10.51;100.00;102045.16;5526173;25;19997;-50
2024/04/14 05:03:36;;;;;;;0.10;0.10;;;;;;;10.47;100.00;102047.50;5524877;25;20005;-50
2024/04/14 05:06:03;;;;;;;0.20;0.20;;;;;;;10.47;100.00;102055.25;5524995;25;19993;-48
2024/04/14 05:08:28;;;;;;;0.20;0.20;;;;;;;10.42;100.00;102052.44;5525732;25;20021;-49
2024/04/14 05:10:55;;;;;;;0.20;0.20;;;;;;;10.39;100.00;102052.28;5524938;25;19990;-49
2024/04/14 05:13:20;;;;;;;0.20;0.20;;;;;;;10.45;100.00;102059.44;5525641;25;19997;-46
2024/04/14 05:15:46;;;;;;;0.10;0.10;;;;;;;10.34;100.00;102057.19;5525881;25;20000;-49
2024/04/14 05:18:12;;;;;;;0.30;0.30;;;;;;;10.31;100.00;102062.19;5524651;25;20066;-50
2024/04/14 05:20:38;;;;;;;0.30;0.30;;;;;;;10.28;100.00;102074.03;5525638;25;19993;-49
2024/04/14 05:23:03;;;;;;;0.20;0.20;;;;;;;10.24;100.00;102072.09;5526007;25;20357;-48
2024/04/14 05:25:29;;;;;;;0.22;0.22;;;;;;;10.31;100.00;102074.19;5524472;25;19990;-50
2024/04/14 05:27:54;;;;;;;0.20;0.20;;;;;;;10.34;100.00;102074.31;5525908;25;19989;-49
2024/04/14 05:30:19;;;;;;;0.20;0.20;;;;;;;10.28;100.00;102071.47;5525193;25;20441;-47
2024/04/14 05:32:44;;;;;;;0.20;0.20;;;;;;;10.32;100.00;102075.97;5524851;25;20061;-50
2024/04/14 05:35:12;;;;;;;0.20;0.20;;;;;;;10.35;100.00;102086.41;5525488;25;19993;-50
2024/04/14 05:37:37;;;;;;;0.20;0.20;;;;;;;10.38;100.00;102091.78;5524867;25;19999;-49
2024/04/14 05:40:03;;;;;;;0.20;0.20;;;;;;;10.42;100.00;102093.69;5525036;25;19989;-48
2024/04/14 05:42:28;;;;;;;0.20;0.20;;;;;;;10.43;100.00;102094.56;5525317;25;20065;-49
2024/04/14 05:44:53;;;;;;;0.20;0.20;;;;;;;10.51;100.00;102099.31;5525086;25;19993;-50
2024/04/14 05:47:19;;;;;;;0.20;0.20;;;;;;;10.54;100.00;102083.09;5524693;25;20332;-48
2024/04/14 05:49:44;;;;;;;0.15;0.15;;;;;;;10.59;100.00;102085.88;5525056;25;20496;-50
2024/04/14 05:52:09;;;;;;;0.20;0.20;;;;;;;10.61;100.00;102080.00;5524996;25;19994;-49
2024/04/14 05:54:34;;;;;;;0.20;0.20;;;;;;;10.66;100.00;102098.28;5524517;25;20069;-49
2024/04/14 05:57:00;;;;;;;0.20;0.20;;;;;;;10.67;100.00;102107.78;5525253;25;20008;-47
2024/04/14 05:59:25;;;;;;;0.20;0.20;;;;;;;10.65;100.00;102097.41;5524801;25;19993;-47
2024/04/14 06:01:50;;;;;;;0.20;0.20;;;;;;;10.65;100.00;102102.56;5524618;25;19993;-49
2024/04/14 06:04:16;;;;;;;0.20;0.20;;;;;;;10.71;100.00;102097.69;5524238;25;19993;-50
2024/04/14 06:06:41;;;;;;;0.20;0.20;;;;;;;10.76;100.00;102095.34;5524338;25;19989;-49
2024/04/14 06:09:07;;;;;;;0.20;0.20;;;;;;;10.75;100.00;102098.72;5524086;25;19993;-49
2024/04/14 06:11:32;;;;;;;0.20;0.20;;;;;;;10.82;100.00;102100.81;5524411;25;19989;-49
2024/04/14 06:13:57;;;;;;;0.22;0.22;;;;;;;10.89;100.00;102102.00;5524648;25;20005;-49
2024/04/14 06:16:23;;;;;;;0.30;0.30;;;;;;;10.95;100.00;102103.97;5523980;25;20324;-50
2024/04/14 06:18:48;;;;;;;0.20;0.20;;;;;;;11.00;100.00;102105.06;5524859;25;19993;-50
2024/04/14 06:21:14;;;;;;;0.10;0.10;;;;;;;11.10;100.00;102104.69;5523589;25;20124;-47
2024/04/14 06:23:40;;;;;;;0.20;0.20;;;;;;;11.04;97.26;102113.03;5524542;25;20003;-49
2024/04/14 06:26:06;;;;;;;0.20;0.20;;;;;;;11.06;97.15;102102.78;5524061;25;20005;-49
2024/04/14 06:28:33;;;;;;;0.22;0.22;;;;;;;11.08;93.24;102103.75;5523635;25;20005;-50
2024/04/14 06:30:59;;;;;;;;;;;;;;;11.31;95.89;102101.38;5524992;25;20004;-49
2024/04/14 06:33:24;;;;;;;0.20;0.20;;;;;;;11.30;95.24;102104.78;5526747;26;19923;-49
2024/04/14 06:35:51;;;;;;;0.20;0.20;;;;;;;11.33;93.22;102115.25;5527217;25;19990;-50
2024/04/14 06:38:17;;;;;;;0.20;0.20;;;;;;;11.40;91.64;102111.25;5527856;25;19989;-50
2024/04/14 06:40:42;;;;;;;0.20;0.20;;;;;;;11.52;92.62;102111.81;5527612;25;20274;-50
2024/04/14 06:43:07;;;;;;;0.20;0.20;;;;;;;11.50;89.18;102119.50;5527248;25;20293;-50
2024/04/14 06:45:33;;;;;;;0.20;0.20;;;;;;;11.51;91.74;102118.66;5527717;25;20061;-50
2024/04/14 06:47:58;;;;;;;0.20;0.20;;;;;;;11.58;87.55;102116.38;5527934;25;20004;-50
2024/04/14 06:50:23;;;;;;;0.20;0.20;;;;;;;11.60;88.16;102119.91;5527501;25;20004;-49
2024/04/14 06:52:48;;;;;;;0.10;0.10;;;;;;;11.69;91.86;102120.34;5528751;25;19990;-48
2024/04/14 06:55:15;;;;;;;0.10;0.10;;;;;;;11.90;91.16;102125.56;5527536;25;19989;-49
2024/04/14 06:57:41;;;;;;;0.20;0.20;;;;;;;11.97;90.17;102126.78;5527043;25;20001;-50
2024/04/14 07:00:07;;;;;;;0.20;0.20;;;;;;;11.96;82.93;102128.47;5527546;25;20013;-50
2024/04/14 07:02:32;;;;;;;0.20;0.20;;;;;;;11.87;81.59;102135.78;5527461;25;20501;-50
2024/04/14 07:04:58;;;;;;;0.20;0.20;;;;;;;11.96;86.60;102132.75;5527045;25;19998;-47
2024/04/14 07:07:23;;;;;;;0.20;0.20;;;;;;;12.02;85.43;102138.22;5527162;25;20057;-46
2024/04/14 07:09:48;;;;;;;0.20;0.20;;;;;;;12.14;85.47;102130.97;5527768;25;19989;-50
2024/04/14 07:12:13;;;;;;;0.20;0.20;;;;;;;12.21;84.05;102131.25;5526798;26;19993;-49
2024/04/14 07:14:39;;;;;;;0.20;0.20;;;;;;;12.26;83.46;102132.34;5526957;25;19993;-49
2024/04/14 07:17:04;;;;;;;0.10;0.10;;;;;;;12.27;84.66;102136.69;5527350;25;19994;-49
2024/04/14 07:19:29;;;;;;;0.20;0.20;;;;;;;12.24;78.08;102132.28;5526589;25;20005;-47
2024/04/14 07:21:55;;;;;;;0.20;0.20;;;;;;;12.25;82.40;102133.16;5527809;25;20455;-51
2024/04/14 07:24:21;;;;;;;0.20;0.20;;;;;;;12.24;80.84;102132.28;5526752;25;19993;-48
2024/04/14 07:26:47;;;;;;;0.20;0.20;;;;;;;12.19;77.17;102137.25;5526739;25;20337;-49
2024/04/14 07:29:13;;;;;;;0.13;0.13;;;;;;;12.22;72.18;102135.63;5527374;25;19989;-49
2024/04/14 07:31:39;;;;;;;0.20;0.20;;;;;;;12.22;71.97;102133.03;5526189;25;20458;-46
2024/04/14 07:34:04;;;;;;;0.10;0.10;;;;;;;12.25;72.71;102144.41;5526776;25;20218;-48
2024/04/14 07:36:29;;;;;;;0.20;0.20;;;;;;;12.25;65.94;102146.06;5527014;25;19989;-48
2024/04/14 07:38:54;;;;;;;0.10;0.10;;;;;;;12.25;65.32;102148.66;5525836;25;20005;-49
2024/04/14 07:41:20;;;;;;;0.20;0.20;;;;;;;12.25;63.47;102151.25;5526978;25;20437;-49
2024/04/14 07:43:48;;;;;;;0.10;0.10;;;;;;;12.27;63.89;102150.50;5525665;25;20005;-50
2024/04/14 07:46:14;;;;;;;0.20;0.20;;;;;;;12.35;66.52;102156.88;5526236;25;20441;-50
2024/04/14 07:48:39;;;;;;;0.20;0.20;;;;;;;12.34;64.14;102151.63;5526767;25;20005;-50
2024/04/14 07:51:05;;;;;;;0.20;0.20;;;;;;;12.41;64.51;102151.09;5526581;25;19998;-51
2024/04/14 07:53:31;;;;;;;0.20;0.20;;;;;;;12.47;65.54;102155.63;5525764;25;20445;-49
2024/04/14 07:55:56;;;;;;;0.20;0.20;;;;;;;12.53;63.16;102161.06;5527248;25;20002;-49
2024/04/14 07:58:22;;;;;;;0.20;0.20;;;;;;;12.54;64.30;102157.69;5526587;25;19998;-51
2024/04/14 08:00:47;;;;;;;0.20;0.20;;;;;;;12.61;67.14;102156.22;5526366;25;20009;-49
2024/04/14 08:03:12;;;;;;;0.10;0.10;;;;;;;12.67;69.54;102159.94;5526958;25;19997;-48
2024/04/14 08:05:38;;;;;;;0.20;0.20;;;;;;;12.73;71.29;102159.34;5526420;25;19993;-48
2024/04/14 08:08:03;;;;;;;0.20;0.20;;;;;;;12.85;69.09;102159.84;5526416;25;19997;-45
2024/04/14 08:10:28;;;;;;;0.20;0.20;;;;;;;12.87;68.36;102166.78;5526973;25;20008;-48
2024/04/14 08:12:54;;;;;;;0.17;0.17;;;;;;;12.98;69.27;102161.22;5526642;25;20330;-46
2024/04/14 08:15:19;;;;;;;0.20;0.20;;;;;;;13.19;71.62;102165.50;5525646;25;20008;-44
2024/04/14 08:17:44;;;;;;;0.20;0.20;;;;;;;13.18;67.48;102167.22;5526698;25;19997;-49
2024/04/14 08:20:11;;;;;;;0.20;0.20;;;;;;;13.47;71.20;102159.72;5526356;26;20013;-49
2024/04/14 08:22:36;;;;;;;0.20;0.20;;;;;;;13.68;63.39;102161.38;5526015;25;19997;-48
2024/04/14 08:25:01;;;;;;;0.20;0.20;;;;;;;13.68;61.32;102163.09;5526804;25;20005;-48
2024/04/14 08:27:27;;;;;;;0.15;0.15;;;;;;;13.93;64.50;102159.69;5526071;25;20069;-48
2024/04/14 08:29:52;;;;;;;0.20;0.20;;;;;;;13.88;61.87;102156.97;5525928;25;19996;-49
2024/04/14 08:32:17;;;;;;;0.10;0.10;;;;;;;14.11;62.39;102147.44;5526212;25;20008;-49
2024/04/14 08:34:43;;;;;;;0.10;0.10;;;;;;;14.33;62.73;102151.66;5525179;25;19997;-48
2024/04/14 08:37:08;;;;;;;0.20;0.20;;;;;;;14.39;59.19;102158.75;5525770;25;20012;-48
2024/04/14 08:39:33;;;;;;;0.20;0.20;;;;;;;14.29;57.07;102161.84;5526083;25;20423;-46
2024/04/14 08:42:00;;;;;;;0.10;0.10;;;;;;;14.22;59.91;102167.69;5525331;25;20005;-46
2024/04/14 08:44:26;;;;;;;0.20;0.20;;;;;;;14.09;59.81;102167.22;5526271;25;20449;-47
2024/04/14 08:46:52;;;;;;;0.10;0.10;;;;;;;14.00;61.06;102175.53;5526198;25;19997;-46
2024/04/14 08:49:21;;;;;;;0.10;0.10;;;;;;;14.24;58.53;102169.50;5525580;25;19997;-47
2024/04/14 08:51:49;;;;;;;0.20;0.20;;;;;;;14.53;56.01;102166.16;5526368;25;19997;-47
2024/04/14 08:54:14;;;;;;;0.10;0.10;;;;;;;14.62;57.28;102166.47;5525246;25;19993;-48
2024/04/14 08:56:40;;;;;;;0.10;0.10;;;;;;;14.51;52.27;102171.25;5524211;25;19997;-48
2024/04/14 08:59:07;;;;;;;0.20;0.20;;;;;;;14.38;54.21;102176.88;5525859;25;20017;-48
2024/04/14 09:01:36;;;;;;;0.10;0.10;;;;;;;14.36;55.23;102175.91;5525541;25;20441;-46
2024/04/14 09:04:04;;;;;;;0.10;0.10;;;;;;;14.39;54.97;102176.03;5525322;25;20005;-47
2024/04/14 09:06:29;;;;;;;0.20;0.20;;;;;;;14.51;53.93;102178.19;5525917;25;20005;-47
2024/04/14 09:08:55;;;;;;;0.10;0.10;;;;;;;14.67;53.41;102174.41;5525720;25;20329;-48
2024/04/14 09:11:20;;;;;;;0.10;0.10;;;;;;;14.81;55.75;102168.88;5525190;25;19993;-47
2024/04/14 09:13:46;;;;;;;0.10;0.10;;;;;;;15.08;56.18;102175.81;5525791;25;20325;-48
2024/04/14 09:16:12;;;;;;;0.20;0.20;;;;;;;15.12;52.60;102180.25;5525491;25;20422;-46
2024/04/14 09:18:37;;;;;;;0.10;0.10;;;;;;;15.46;55.69;102186.50;5524806;25;20329;-44
2024/04/14 09:21:03;;;;;;;0.10;0.10;;;;;;;15.67;54.41;102175.00;5525475;25;20476;-44
2024/04/14 09:23:28;;;;;;;0.10;0.10;;;;;;;15.83;54.49;102179.00;5525326;25;20004;-45
2024/04/14 09:25:54;;;;;;;0.10;0.10;;;;;;;16.31;54.39;102188.13;5524945;25;19998;-44
2024/04/14 09:28:19;;;;;;;0.10;0.10;;;;;;;16.25;53.57;102186.22;5525576;25;20441;-44
2024/04/14 09:30:45;;;;;;;0.10;0.10;;;;;;;16.17;50.98;102176.47;5525700;25;20006;-46
2024/04/14 09:33:11;;;;;;;0.10;0.10;;;;;;;16.25;51.73;102180.16;5524707;25;20001;-45
2024/04/14 09:35:36;;;;;;;0.10;0.10;;;;;;;16.42;53.41;102171.09;5525114;25;19997;-44
2024/04/14 09:38:06;;;;;;;0.10;0.10;;;;;;;16.44;52.89;102182.41;5524261;25;20008;-45
2024/04/14 09:40:32;;;;;;;0.10;0.10;;;;;;;16.81;51.83;102179.00;5525170;25;19997;-44
2024/04/14 09:42:59;;;;;;;0.10;0.10;;;;;;;16.66;49.69;102192.53;5525176;25;19998;-44
2024/04/14 09:45:25;;;;;;;;;;;;;;;16.92;48.92;102190.59;5524803;25;19993;-44
2024/04/14 09:47:53;;;;;;;0.10;0.10;;;;;;;16.41;46.55;102199.66;5525689;25;19924;-49
2024/04/14 09:50:22;;;;;;;0.10;0.10;;;;;;;16.07;45.37;102197.00;5524834;25;19993;-44
2024/04/14 09:52:52;;;;;;;0.10;0.10;;;;;;;15.95;46.34;102201.88;5525073;25;20013;-44
2024/04/14 09:55:19;;;;;;;0.10;0.10;;;;;;;15.91;45.19;102197.41;5524957;25;20016;-44
2024/04/14 09:57:44;;;;;;;0.20;0.20;;;;;;;15.64;44.92;102194.00;5524857;25;20008;-44
2024/04/14 10:00:10;;;;;;;0.10;0.10;;;;;;;15.76;48.32;102190.00;5524195;25;20445;-44
2024/04/14 10:02:53;;;;;;;0.10;0.10;;;;;;;15.79;47.21;102196.19;5524674;25;20361;-45
2024/04/14 10:05:21;;;;;;;0.10;0.10;;;;;;;15.72;45.50;102194.22;5524641;25;19993;-49
2024/04/14 10:07:48;;;;;;;0.10;0.10;;;;;;;15.78;46.21;102199.59;5526336;25;19994;-48
2024/04/14 10:10:13;;;;;;;0.10;0.10;;;;;;;15.75;46.90;102196.03;5528438;25;19993;-49
2024/04/14 10:12:39;;;;;;;0.10;0.10;;;;;;;15.91;45.51;102194.81;5527677;25;20205;-48
2024/04/14 10:15:05;;;;;;;0.10;0.10;;;;;;;16.07;45.61;102197.00;5527629;25;20005;-47
2024/04/14 10:17:32;;;;;;;0.10;0.10;;;;;;;16.08;44.67;102203.09;5527925;25;19993;-44
2024/04/14 10:20:00;;;;;;;0.10;0.10;;;;;;;16.24;45.80;102205.31;5528080;25;19993;-49
2024/04/14 10:22:30;;;;;;;0.10;0.10;;;;;;;16.12;45.63;102192.81;5527728;25;20332;-49
2024/04/14 10:24:55;;;;;;;0.10;0.10;;;;;;;16.68;42.20;102191.72;5528274;25;19998;-49
2024/04/14 10:27:22;;;;;;;0.10;0.10;;;;;;;16.87;39.67;102198.25;5526922;25;20004;-49
2024/04/14 10:29:57;;;;;;;0.10;0.10;;;;;;;17.20;38.59;102196.50;5528394;25;20009;-49
2024/04/14 10:32:23;;;;;;;0.10;0.10;;;;;;;17.60;38.96;102202.63;5527517;25;20005;-48
2024/04/14 10:34:49;;;;;;;0.10;0.10;;;;;;;17.77;37.33;102205.59;5527672;25;19994;-49
2024/04/14 10:37:27;;;;;;;0.10;0.10;;;;;;;17.91;37.59;102204.16;5528106;25;19993;-48
2024/04/14 10:39:54;;;;;;;0.10;0.10;;;;;;;17.59;37.33;102200.84;5528013;25;20027;-50
2024/04/14 10:42:21;;;;;;;0.10;0.10;;;;;;;17.68;37.23;102211.47;5527707;25;20005;-49
2024/04/14 10:44:47;;;;;;;0.10;0.10;;;;;;;18.03;38.47;102203.56;5527827;25;20226;-49
2024/04/14 10:47:19;;;;;;;0.10;0.10;;;;;;;17.95;36.57;102212.97;5527887;25;19997;-44
2024/04/14 10:49:47;;;;;;;0.10;0.10;;;;;;;18.17;39.52;102205.56;5527377;25;19997;-49
2024/04/14 10:52:12;;;;;;;0.10;0.10;;;;;;;18.27;40.52;102202.31;5527903;25;20405;-47
2024/04/14 10:54:38;;;;;;;0.00;0.00;;;;;;;18.54;37.48;102201.03;5527701;25;20010;-49
2024/04/14 10:57:04;;;;;;;0.10;0.10;;;;;;;19.09;39.95;102195.91;5526842;25;20022;-47
2024/04/14 10:59:29;;;;;;;0.10;0.10;;;;;;;19.25;38.74;102197.91;5527459;26;20008;-49
2024/04/14 11:01:55;;;;;;;0.00;0.00;;;;;;;19.17;37.06;102190.81;5527538;26;20005;-50
2024/04/14 11:04:20;;;;;;;0.10;0.10;;;;;;;18.92;36.54;102188.69;5526760;26;20322;-50
2024/04/14 11:06:46;;;;;;;0.10;0.10;;;;;;;18.45;37.44;102185.22;5527759;26;19998;-49
2024/04/14 11:09:13;;;;;;;0.00;0.00;;;;;;;17.92;35.27;102182.44;5527178;26;20022;-48
2024/04/14 11:11:40;;;;;;;0.10;0.10;;;;;;;18.09;39.45;102166.28;5526675;26;20069;-47
2024/04/14 11:14:05;;;;;;;0.03;0.03;;;;;;;18.70;37.09;102181.31;5527492;26;19997;-47